Oluja — V7QE8 — position and weather

sailwx.info

Track history (hours):
 
Tides and Currents Weather Stations Pressure Air Temp Water Temp Dewpoint Dewpoint Depression Visibility Wind Speed Wind Dir Waves Ship Positions

Oluja

Last reported at 2014-Nov-19 07:05 UTC. Time now 2014-Nov-22 00:26 UTC.
Position N 38°10' E 024°08'.

Length 188 m; draft 6.1 m.

Type: Cargo ship. MMSI: 538003345.

Date/timePositionNaut miles runAvg speedWind from/ knotsBaromVisibWave heightAir tempDewpointWater temp
2014-Nov-19 07:05N 38°10' E 024°08'813.9
2014-Nov-19 06:31N 38°02' E 024°08'1813.7
2014-Nov-19 05:13N 37°47' E 024°21'913.1
2014-Nov-19 04:34N 37°41' E 024°28'1313.3
2014-Nov-19 03:34N 37°31' E 024°39'1413.8
2014-Nov-19 02:33N 37°20' E 024°50'1313.4
2014-Nov-19 01:33N 37°18' E 025°07'1413.5
2014-Nov-19 00:33N 37°16' E 025°24'1313.4
2014-Nov-18 23:33N 37°15' E 025°40'1312.9
2014-Nov-18 22:33N 37°09' E 025°55'1313.5
2014-Nov-18 21:33N 37°01' E 026°08'1414.4
2014-Nov-18 20:33N 36°51' E 026°22'1414.4
2014-Nov-18 19:33N 36°41' E 026°35'1414.4
2014-Nov-18 18:33N 36°31' E 026°48'1514.8
2014-Nov-18 17:33N 36°21' E 027°01'  
Track history (hours):
 
Tides and Currents Weather Stations Pressure Air Temp Water Temp Dewpoint Dewpoint Depression Visibility Wind Speed Wind Dir Waves Ship Positions

Oluja

Last reported at 2014-Nov-19 07:05 UTC. Time now 2014-Nov-22 00:26 UTC.
Position N 38°10' E 024°08'.

Length 188 m; draft 6.1 m.

Type: Cargo ship. MMSI: 538003345.

Date/timePositionNaut miles runAvg speedWind from/ knotsBaromVisibWave heightAir tempDewpointWater temp
2014-Nov-19 07:05N 38°10' E 024°08'813.9
2014-Nov-19 06:31N 38°02' E 024°08'1813.7
2014-Nov-19 05:13N 37°47' E 024°21'913.1
2014-Nov-19 04:34N 37°41' E 024°28'1313.3
2014-Nov-19 03:34N 37°31' E 024°39'1413.8
2014-Nov-19 02:33N 37°20' E 024°50'1313.4
2014-Nov-19 01:33N 37°18' E 025°07'1413.5
2014-Nov-19 00:33N 37°16' E 025°24'1313.4
2014-Nov-18 23:33N 37°15' E 025°40'1312.9
2014-Nov-18 22:33N 37°09' E 025°55'1313.5
2014-Nov-18 21:33N 37°01' E 026°08'1414.4
2014-Nov-18 20:33N 36°51' E 026°22'1414.4
2014-Nov-18 19:33N 36°41' E 026°35'1414.4
2014-Nov-18 18:33N 36°31' E 026°48'1514.8
2014-Nov-18 17:33N 36°21' E 027°01'  

Dump ship's entire track history